sensor_id;sensor_type;location;lat;lon;timestamp;pressure;altitude;pressure_sealevel;temperature;humidity
65394;BME280;52002;49.760;6.512;2022-09-03T00:00:48;99430.65;;;18.92;45.01
65394;BME280;52002;49.760;6.512;2022-09-03T00:03:26;99424.96;;;18.98;44.86
65394;BME280;52002;49.760;6.512;2022-09-03T00:08:45;99432.14;;;19.08;45.24
65394;BME280;52002;49.760;6.512;2022-09-03T00:11:46;99432.59;;;19.12;45.35
65394;BME280;52002;49.760;6.512;2022-09-03T00:14:24;99433.19;;;19.14;45.61
65394;BME280;52002;49.760;6.512;2022-09-03T00:17:11;99432.67;;;19.15;45.74
65394;BME280;52002;49.760;6.512;2022-09-03T00:19:57;99437.14;;;19.11;45.69
65394;BME280;52002;49.760;6.512;2022-09-03T00:22:22;99434.44;;;19.11;45.52
65394;BME280;52002;49.760;6.512;2022-09-03T00:25:04;99432.77;;;19.10;45.50
65394;BME280;52002;49.760;6.512;2022-09-03T00:27:36;99432.27;;;19.11;45.70
65394;BME280;52002;49.760;6.512;2022-09-03T00:30:10;99430.06;;;19.10;45.69
65394;BME280;52002;49.760;6.512;2022-09-03T00:32:56;99426.42;;;19.14;45.51
65394;BME280;52002;49.760;6.512;2022-09-03T00:35:40;99428.40;;;19.16;45.49
65394;BME280;52002;49.760;6.512;2022-09-03T00:38:08;99426.01;;;19.17;45.49
65394;BME280;52002;49.760;6.512;2022-09-03T00:44:01;99430.51;;;19.21;45.51
65394;BME280;52002;49.760;6.512;2022-09-03T00:46:39;99429.66;;;19.20;45.69
65394;BME280;52002;49.760;6.512;2022-09-03T01:00:39;99424.16;;;19.11;46.62
65394;BME280;52002;49.760;6.512;2022-09-03T01:06:18;99421.23;;;19.13;45.86
65394;BME280;52002;49.760;6.512;2022-09-03T01:09:20;99428.21;;;19.18;45.97
65394;BME280;52002;49.760;6.512;2022-09-03T01:12:11;99424.56;;;19.21;45.95
65394;BME280;52002;49.760;6.512;2022-09-03T01:14:58;99431.33;;;19.21;46.05
65394;BME280;52002;49.760;6.512;2022-09-03T01:17:45;99429.87;;;19.19;46.07
65394;BME280;52002;49.760;6.512;2022-09-03T01:29:07;99438.00;;;19.12;46.48
65394;BME280;52002;49.760;6.512;2022-09-03T01:34:20;99437.37;;;19.17;46.58
65394;BME280;52002;49.760;6.512;2022-09-03T01:37:13;99438.81;;;19.19;46.88
65394;BME280;52002;49.760;6.512;2022-09-03T01:40:03;99439.76;;;19.22;46.85
65394;BME280;52002;49.760;6.512;2022-09-03T02:02:35;99439.75;;;19.09;48.06
65394;BME280;52002;49.760;6.512;2022-09-03T02:05:10;99441.83;;;19.07;48.27
65394;BME280;52002;49.760;6.512;2022-09-03T02:07:47;99447.65;;;19.04;48.40
65394;BME280;52002;49.760;6.512;2022-09-03T02:10:20;99442.95;;;19.02;48.55
65394;BME280;52002;49.760;6.512;2022-09-03T02:12:58;99431.09;;;18.96;48.35
65394;BME280;52002;49.760;6.512;2022-09-03T02:15:26;99443.95;;;18.94;48.50
65394;BME280;52002;49.760;6.512;2022-09-03T02:17:55;99439.80;;;18.91;48.50
65394;BME280;52002;49.760;6.512;2022-09-03T02:20:24;99446.24;;;18.90;48.62
65394;BME280;52002;49.760;6.512;2022-09-03T02:22:52;99440.84;;;18.90;48.93
65394;BME280;52002;49.760;6.512;2022-09-03T02:25:20;99437.09;;;18.91;48.97
65394;BME280;52002;49.760;6.512;2022-09-03T02:27:48;99446.34;;;18.93;49.24
65394;BME280;52002;49.760;6.512;2022-09-03T02:30:14;99442.19;;;18.90;49.62
65394;BME280;52002;49.760;6.512;2022-09-03T02:32:41;99442.06;;;18.88;49.75
65394;BME280;52002;49.760;6.512;2022-09-03T02:35:07;99444.25;;;18.81;49.51
65394;BME280;52002;49.760;6.512;2022-09-03T02:37:34;99446.54;;;18.78;49.76
65394;BME280;52002;49.760;6.512;2022-09-03T02:40:00;99443.60;;;18.73;50.05
65394;BME280;52002;49.760;6.512;2022-09-03T02:42:28;99446.31;;;18.73;50.37
65394;BME280;52002;49.760;6.512;2022-09-03T02:44:59;99444.32;;;18.71;51.30
65394;BME280;52002;49.760;6.512;2022-09-03T02:47:36;99443.60;;;18.73;51.76
65394;BME280;52002;49.760;6.512;2022-09-03T02:50:05;99440.50;;;18.76;51.99
65394;BME280;52002;49.760;6.512;2022-09-03T02:52:31;99439.14;;;18.76;52.28
65394;BME280;52002;49.760;6.512;2022-09-03T02:54:57;99442.75;;;18.72;52.36
65394;BME280;52002;49.760;6.512;2022-09-03T02:57:23;99436.53;;;18.72;52.93
65394;BME280;52002;49.760;6.512;2022-09-03T02:59:48;99444.42;;;18.73;53.49
65394;BME280;52002;49.760;6.512;2022-09-03T03:02:14;99442.56;;;18.74;53.96
65394;BME280;52002;49.760;6.512;2022-09-03T03:04:40;99446.61;;;18.67;53.86
65394;BME280;52002;49.760;6.512;2022-09-03T03:07:06;99434.20;;;18.55;53.91
65394;BME280;52002;49.760;6.512;2022-09-03T03:09:32;99434.36;;;18.47;54.10
65394;BME280;52002;49.760;6.512;2022-09-03T03:11:58;99429.38;;;18.44;54.35
65394;BME280;52002;49.760;6.512;2022-09-03T03:14:24;99428.75;;;18.42;54.49
65394;BME280;52002;49.760;6.512;2022-09-03T03:16:50;99426.45;;;18.39;55.06
65394;BME280;52002;49.760;6.512;2022-09-03T03:19:16;99431.72;;;18.36;55.79
65394;BME280;52002;49.760;6.512;2022-09-03T03:21:42;99435.42;;;18.28;56.11
65394;BME280;52002;49.760;6.512;2022-09-03T03:24:08;99425.86;;;18.26;56.12
65394;BME280;52002;49.760;6.512;2022-09-03T03:26:34;99425.44;;;18.22;56.36
65394;BME280;52002;49.760;6.512;2022-09-03T03:29:01;99429.50;;;18.22;56.50
65394;BME280;52002;49.760;6.512;2022-09-03T03:31:31;99424.09;;;18.22;56.66
65394;BME280;52002;49.760;6.512;2022-09-03T03:34:02;99422.82;;;18.18;56.73
65394;BME280;52002;49.760;6.512;2022-09-03T03:36:29;99431.00;;;18.14;56.82
65394;BME280;52002;49.760;6.512;2022-09-03T03:38:58;99431.61;;;18.09;57.03
65394;BME280;52002;49.760;6.512;2022-09-03T03:41:28;99432.64;;;18.08;57.01
65394;BME280;52002;49.760;6.512;2022-09-03T03:43:57;99440.95;;;18.07;56.65
65394;BME280;52002;49.760;6.512;2022-09-03T03:46:31;99434.52;;;18.08;56.98
65394;BME280;52002;49.760;6.512;2022-09-03T03:49:02;99442.52;;;18.12;57.74
65394;BME280;52002;49.760;6.512;2022-09-03T03:51:28;99443.47;;;18.15;58.22
65394;BME280;52002;49.760;6.512;2022-09-03T03:53:55;99441.30;;;18.14;58.67
65394;BME280;52002;49.760;6.512;2022-09-03T03:56:23;99445.14;;;18.16;58.74
65394;BME280;52002;49.760;6.512;2022-09-03T03:58:51;99442.13;;;18.15;58.93
65394;BME280;52002;49.760;6.512;2022-09-03T04:01:20;99441.94;;;18.16;59.08
65394;BME280;52002;49.760;6.512;2022-09-03T04:03:47;99445.22;;;18.12;58.89
65394;BME280;52002;49.760;6.512;2022-09-03T04:06:16;99442.80;;;18.06;58.92
65394;BME280;52002;49.760;6.512;2022-09-03T04:08:44;99437.30;;;18.03;58.95
65394;BME280;52002;49.760;6.512;2022-09-03T04:11:13;99438.83;;;18.02;59.39
65394;BME280;52002;49.760;6.512;2022-09-03T04:13:42;99437.37;;;17.99;59.78
65394;BME280;52002;49.760;6.512;2022-09-03T04:16:11;99440.39;;;18.00;59.88
65394;BME280;52002;49.760;6.512;2022-09-03T04:18:40;99441.34;;;18.03;60.04
65394;BME280;52002;49.760;6.512;2022-09-03T04:21:09;99441.98;;;18.05;60.23
65394;BME280;52002;49.760;6.512;2022-09-03T04:23:41;99441.77;;;18.07;60.21
65394;BME280;52002;49.760;6.512;2022-09-03T04:26:10;99444.05;;;18.03;60.10
65394;BME280;52002;49.760;6.512;2022-09-03T04:28:38;99440.61;;;17.99;60.27
65394;BME280;52002;49.760;6.512;2022-09-03T04:31:07;99448.11;;;17.93;60.21
65394;BME280;52002;49.760;6.512;2022-09-03T04:33:35;99441.20;;;17.83;60.42
65394;BME280;52002;49.760;6.512;2022-09-03T04:36:11;99441.39;;;17.82;60.58
65394;BME280;52002;49.760;6.512;2022-09-03T04:38:38;99445.37;;;17.86;61.02
65394;BME280;52002;49.760;6.512;2022-09-03T04:41:07;99445.30;;;17.90;61.39
65394;BME280;52002;49.760;6.512;2022-09-03T04:43:35;99446.05;;;17.95;61.53
65394;BME280;52002;49.760;6.512;2022-09-03T04:46:04;99437.41;;;17.95;61.57
65394;BME280;52002;49.760;6.512;2022-09-03T04:48:32;99444.48;;;17.96;61.42
65394;BME280;52002;49.760;6.512;2022-09-03T04:51:05;99448.22;;;17.95;61.25
65394;BME280;52002;49.760;6.512;2022-09-03T04:53:34;99461.50;;;17.90;61.10
65394;BME280;52002;49.760;6.512;2022-09-03T04:56:01;99454.11;;;17.88;61.43
65394;BME280;52002;49.760;6.512;2022-09-03T04:58:27;99453.78;;;17.87;61.85
65394;BME280;52002;49.760;6.512;2022-09-03T05:00:54;99460.92;;;17.84;61.69
65394;BME280;52002;49.760;6.512;2022-09-03T05:03:20;99455.28;;;17.79;61.61
65394;BME280;52002;49.760;6.512;2022-09-03T05:05:55;99451.33;;;17.74;61.90
65394;BME280;52002;49.760;6.512;2022-09-03T05:08:22;99451.72;;;17.71;62.04
65394;BME280;52002;49.760;6.512;2022-09-03T05:10:48;99454.41;;;17.71;62.28
65394;BME280;52002;49.760;6.512;2022-09-03T05:13:14;99450.55;;;17.70;62.51
65394;BME280;52002;49.760;6.512;2022-09-03T05:15:40;99455.30;;;17.68;62.35
65394;BME280;52002;49.760;6.512;2022-09-03T05:18:08;99459.06;;;17.67;62.33
65394;BME280;52002;49.760;6.512;2022-09-03T05:20:33;99462.19;;;17.70;62.35
65394;BME280;52002;49.760;6.512;2022-09-03T05:23:03;99463.33;;;17.72;62.25
65394;BME280;52002;49.760;6.512;2022-09-03T05:25:29;99471.58;;;17.74;62.43
65394;BME280;52002;49.760;6.512;2022-09-03T05:27:57;99471.48;;;17.79;62.64
65394;BME280;52002;49.760;6.512;2022-09-03T05:30:23;99464.66;;;17.83;62.82
65394;BME280;52002;49.760;6.512;2022-09-03T05:32:50;99467.47;;;17.85;62.71
65394;BME280;52002;49.760;6.512;2022-09-03T05:35:16;99467.18;;;17.84;62.69
65394;BME280;52002;49.760;6.512;2022-09-03T05:37:43;99470.70;;;17.85;62.71
65394;BME280;52002;49.760;6.512;2022-09-03T05:40:10;99470.48;;;17.86;62.53
65394;BME280;52002;49.760;6.512;2022-09-03T05:42:39;99476.35;;;17.90;62.37
65394;BME280;52002;49.760;6.512;2022-09-03T05:45:06;99476.98;;;17.92;62.01
65394;BME280;52002;49.760;6.512;2022-09-03T05:47:38;99472.52;;;17.95;61.75
65394;BME280;52002;49.760;6.512;2022-09-03T05:50:08;99479.55;;;18.00;61.85
65394;BME280;52002;49.760;6.512;2022-09-03T05:52:36;99478.95;;;18.05;61.96
65394;BME280;52002;49.760;6.512;2022-09-03T05:55:03;99483.78;;;18.10;61.84
65394;BME280;52002;49.760;6.512;2022-09-03T05:57:29;99485.48;;;18.17;62.06
65394;BME280;52002;49.760;6.512;2022-09-03T05:59:56;99474.08;;;18.22;62.14
65394;BME280;52002;49.760;6.512;2022-09-03T06:02:22;99476.91;;;18.31;62.11
65394;BME280;52002;49.760;6.512;2022-09-03T06:04:48;99473.52;;;18.40;62.07
65394;BME280;52002;49.760;6.512;2022-09-03T06:07:13;99476.57;;;18.48;61.87
65394;BME280;52002;49.760;6.512;2022-09-03T06:09:39;99483.16;;;18.56;61.69
65394;BME280;52002;49.760;6.512;2022-09-03T06:12:06;99480.98;;;18.62;61.44
65394;BME280;52002;49.760;6.512;2022-09-03T06:14:32;99476.84;;;18.66;61.31
65394;BME280;52002;49.760;6.512;2022-09-03T06:16:58;99481.36;;;18.70;61.41
65394;BME280;52002;49.760;6.512;2022-09-03T06:19:23;99483.23;;;18.76;61.03
65394;BME280;52002;49.760;6.512;2022-09-03T06:21:49;99481.79;;;18.80;60.83
65394;BME280;52002;49.760;6.512;2022-09-03T06:24:17;99483.56;;;18.84;60.74
65394;BME280;52002;49.760;6.512;2022-09-03T06:26:46;99481.91;;;18.90;60.76
65394;BME280;52002;49.760;6.512;2022-09-03T06:29:12;99477.30;;;18.94;60.35
65394;BME280;52002;49.760;6.512;2022-09-03T06:31:39;99479.70;;;19.00;60.32
65394;BME280;52002;49.760;6.512;2022-09-03T06:34:05;99473.25;;;19.08;60.03
65394;BME280;52002;49.760;6.512;2022-09-03T06:36:31;99476.06;;;19.17;60.01
65394;BME280;52002;49.760;6.512;2022-09-03T06:38:57;99479.41;;;19.33;59.90
65394;BME280;52002;49.760;6.512;2022-09-03T06:41:26;99487.56;;;19.46;59.66
65394;BME280;52002;49.760;6.512;2022-09-03T06:43:57;99484.00;;;19.59;58.92
65394;BME280;52002;49.760;6.512;2022-09-03T06:46:27;99484.84;;;19.60;58.77
65394;BME280;52002;49.760;6.512;2022-09-03T06:48:53;99487.55;;;19.60;58.57
65394;BME280;52002;49.760;6.512;2022-09-03T06:51:21;99486.11;;;19.64;58.30
65394;BME280;52002;49.760;6.512;2022-09-03T06:53:51;99479.02;;;19.63;57.99
65394;BME280;52002;49.760;6.512;2022-09-03T06:56:20;99488.27;;;19.64;57.73
65394;BME280;52002;49.760;6.512;2022-09-03T06:58:49;99490.78;;;19.73;57.23
65394;BME280;52002;49.760;6.512;2022-09-03T07:01:18;99487.62;;;19.82;57.12
65394;BME280;52002;49.760;6.512;2022-09-03T07:03:47;99488.80;;;19.91;56.76
65394;BME280;52002;49.760;6.512;2022-09-03T07:06:17;99493.56;;;20.02;56.37
65394;BME280;52002;49.760;6.512;2022-09-03T07:08:46;99491.27;;;20.12;55.63
65394;BME280;52002;49.760;6.512;2022-09-03T07:11:14;99491.96;;;20.24;55.15
65394;BME280;52002;49.760;6.512;2022-09-03T07:13:44;99491.44;;;20.31;54.83
65394;BME280;52002;49.760;6.512;2022-09-03T07:16:15;99491.30;;;20.35;54.64
65394;BME280;52002;49.760;6.512;2022-09-03T07:18:42;99495.95;;;20.44;54.63
65394;BME280;52002;49.760;6.512;2022-09-03T07:21:10;99492.91;;;20.50;54.43
65394;BME280;52002;49.760;6.512;2022-09-03T07:23:38;99496.44;;;20.57;54.24
65394;BME280;52002;49.760;6.512;2022-09-03T07:26:10;99495.24;;;20.69;53.66
65394;BME280;52002;49.760;6.512;2022-09-03T07:28:40;99498.14;;;20.81;53.32
65394;BME280;52002;49.760;6.512;2022-09-03T07:31:10;99497.69;;;20.84;53.30
65394;BME280;52002;49.760;6.512;2022-09-03T07:33:38;99503.27;;;20.96;52.90
65394;BME280;52002;49.760;6.512;2022-09-03T07:36:13;99502.48;;;21.04;52.83
65394;BME280;52002;49.760;6.512;2022-09-03T07:38:39;99501.81;;;21.16;52.06
65394;BME280;52002;49.760;6.512;2022-09-03T07:41:07;99499.92;;;21.32;52.30
65394;BME280;52002;49.760;6.512;2022-09-03T07:43:39;99501.17;;;21.46;52.28
65394;BME280;52002;49.760;6.512;2022-09-03T07:46:10;99502.76;;;21.60;52.07
65394;BME280;52002;49.760;6.512;2022-09-03T07:48:40;99499.66;;;21.82;51.71
65394;BME280;52002;49.760;6.512;2022-09-03T07:51:08;99498.09;;;22.02;51.39
65394;BME280;52002;49.760;6.512;2022-09-03T07:53:34;99498.80;;;22.16;50.48
65394;BME280;52002;49.760;6.512;2022-09-03T07:56:03;99499.84;;;22.24;50.02
65394;BME280;52002;49.760;6.512;2022-09-03T07:58:31;99496.22;;;22.40;49.47
65394;BME280;52002;49.760;6.512;2022-09-03T08:01:02;99500.09;;;22.51;49.21
65394;BME280;52002;49.760;6.512;2022-09-03T08:03:34;99507.12;;;22.58;49.47
65394;BME280;52002;49.760;6.512;2022-09-03T08:06:02;99509.99;;;22.64;49.44
65394;BME280;52002;49.760;6.512;2022-09-03T08:08:29;99509.66;;;22.72;49.40
65394;BME280;52002;49.760;6.512;2022-09-03T08:11:06;99513.59;;;22.85;48.93
65394;BME280;52002;49.760;6.512;2022-09-03T08:13:37;99510.84;;;22.95;48.27
65394;BME280;52002;49.760;6.512;2022-09-03T08:16:14;99513.05;;;22.95;48.15
65394;BME280;52002;49.760;6.512;2022-09-03T08:18:43;99504.64;;;22.97;48.12
65394;BME280;52002;49.760;6.512;2022-09-03T08:21:13;99507.31;;;23.15;47.83
65394;BME280;52002;49.760;6.512;2022-09-03T08:23:44;99507.22;;;23.43;47.40
65394;BME280;52002;49.760;6.512;2022-09-03T08:26:11;99510.21;;;23.65;47.11
65394;BME280;52002;49.760;6.512;2022-09-03T08:28:38;99502.52;;;23.74;46.96
65394;BME280;52002;49.760;6.512;2022-09-03T08:31:07;99507.22;;;23.88;46.73
65394;BME280;52002;49.760;6.512;2022-09-03T08:33:44;99506.19;;;24.01;46.77
65394;BME280;52002;49.760;6.512;2022-09-03T08:36:27;99512.06;;;24.07;46.95
65394;BME280;52002;49.760;6.512;2022-09-03T08:38:51;99506.22;;;24.28;47.10
65394;BME280;52002;49.760;6.512;2022-09-03T08:55:15;99514.66;;;24.02;47.94
65394;BME280;52002;49.760;6.512;2022-09-03T08:57:52;99510.89;;;23.94;48.28
65394;BME280;52002;49.760;6.512;2022-09-03T09:00:16;99518.54;;;23.83;48.32
65394;BME280;52002;49.760;6.512;2022-09-03T09:06:02;99524.98;;;23.67;48.86
65394;BME280;52002;49.760;6.512;2022-09-03T09:17:48;99522.55;;;24.25;48.63
65394;BME280;52002;49.760;6.512;2022-09-03T09:20:50;99512.34;;;24.47;48.29
65394;BME280;52002;49.760;6.512;2022-09-03T09:23:46;99521.18;;;24.78;48.14
65394;BME280;52002;49.760;6.512;2022-09-03T09:26:16;99519.05;;;24.94;47.50
65394;BME280;52002;49.760;6.512;2022-09-03T09:28:45;99524.42;;;25.04;47.29
65394;BME280;52002;49.760;6.512;2022-09-03T09:31:14;99524.06;;;25.29;47.20
65394;BME280;52002;49.760;6.512;2022-09-03T09:33:42;99526.23;;;25.58;46.80
65394;BME280;52002;49.760;6.512;2022-09-03T09:36:11;99528.47;;;25.79;46.20
65394;BME280;52002;49.760;6.512;2022-09-03T09:38:41;99525.99;;;25.97;45.93
65394;BME280;52002;49.760;6.512;2022-09-03T09:41:11;99531.55;;;26.02;45.39
65394;BME280;52002;49.760;6.512;2022-09-03T09:43:43;99530.36;;;25.95;45.27
65394;BME280;52002;49.760;6.512;2022-09-03T09:46:12;99523.02;;;25.81;45.42
65394;BME280;52002;49.760;6.512;2022-09-03T09:48:48;99525.52;;;25.66;45.77
65394;BME280;52002;49.760;6.512;2022-09-03T09:51:22;99526.92;;;25.51;45.87
65394;BME280;52002;49.760;6.512;2022-09-03T09:56:41;99527.67;;;25.47;46.50
65394;BME280;52002;49.760;6.512;2022-09-03T09:59:08;99529.03;;;25.64;46.15
65394;BME280;52002;49.760;6.512;2022-09-03T10:01:38;99523.70;;;25.88;46.13
65394;BME280;52002;49.760;6.512;2022-09-03T10:04:22;99531.75;;;26.12;45.71
65394;BME280;52002;49.760;6.512;2022-09-03T10:10:06;99519.25;;;26.61;44.75
65394;BME280;52002;49.760;6.512;2022-09-03T10:18:47;99518.98;;;26.40;44.71
65394;BME280;52002;49.760;6.512;2022-09-03T10:21:19;99524.08;;;26.54;44.60
65394;BME280;52002;49.760;6.512;2022-09-03T10:27:08;99520.56;;;26.36;44.33
65394;BME280;52002;49.760;6.512;2022-09-03T10:29:37;99516.09;;;26.10;44.94
65394;BME280;52002;49.760;6.512;2022-09-03T10:32:25;99508.08;;;25.86;45.26
65394;BME280;52002;49.760;6.512;2022-09-03T10:37:46;99514.14;;;25.40;46.09
65394;BME280;52002;49.760;6.512;2022-09-03T10:40:40;99508.19;;;25.28;46.25
65394;BME280;52002;49.760;6.512;2022-09-03T10:46:27;99495.90;;;25.28;46.62
65394;BME280;52002;49.760;6.512;2022-09-03T10:52:15;99491.41;;;25.51;46.37
65394;BME280;52002;49.760;6.512;2022-09-03T10:57:54;99494.56;;;25.43;46.41
65394;BME280;52002;49.760;6.512;2022-09-03T11:00:19;99483.02;;;25.41;46.49
65394;BME280;52002;49.760;6.512;2022-09-03T11:08:29;99482.34;;;24.88;47.34
65394;BME280;52002;49.760;6.512;2022-09-03T11:13:46;99476.73;;;24.80;47.68
65394;BME280;52002;49.760;6.512;2022-09-03T11:16:34;99472.89;;;24.78;47.79
65394;BME280;52002;49.760;6.512;2022-09-03T11:19:06;99491.67;;;24.75;47.91
65394;BME280;52002;49.760;6.512;2022-09-03T11:21:37;99493.41;;;24.69;48.17
65394;BME280;52002;49.760;6.512;2022-09-03T11:26:58;99485.91;;;24.47;48.92
65394;BME280;52002;49.760;6.512;2022-09-03T11:29:37;99488.66;;;24.35;49.45
65394;BME280;52002;49.760;6.512;2022-09-03T11:32:19;99484.92;;;24.27;49.86
65394;BME280;52002;49.760;6.512;2022-09-03T11:34:53;99486.89;;;24.17;50.17
65394;BME280;52002;49.760;6.512;2022-09-03T11:37:29;99494.61;;;24.08;50.27
65394;BME280;52002;49.760;6.512;2022-09-03T11:42:41;99499.84;;;23.98;51.00
65394;BME280;52002;49.760;6.512;2022-09-03T11:45:32;99504.84;;;23.92;51.87
65394;BME280;52002;49.760;6.512;2022-09-03T11:47:45;99509.59;;;23.85;52.73
65394;BME280;52002;49.760;6.512;2022-09-03T11:52:50;99502.59;;;23.65;54.85
65394;BME280;52002;49.760;6.512;2022-09-03T11:55:27;99507.50;;;23.54;55.64
65394;BME280;52002;49.760;6.512;2022-09-03T11:57:56;99513.44;;;23.41;56.70
65394;BME280;52002;49.760;6.512;2022-09-03T12:00:21;99523.92;;;23.35;57.23
65394;BME280;52002;49.760;6.512;2022-09-03T12:03:00;99538.00;;;23.32;57.03
65394;BME280;52002;49.760;6.512;2022-09-03T12:05:41;99538.91;;;23.26;56.62
65394;BME280;52002;49.760;6.512;2022-09-03T12:22:27;99533.53;;;23.19;58.34
65394;BME280;52002;49.760;6.512;2022-09-03T12:24:53;99529.64;;;23.06;58.59
65394;BME280;52002;49.760;6.512;2022-09-03T12:27:22;99520.06;;;22.94;58.78
65394;BME280;52002;49.760;6.512;2022-09-03T12:30:01;99523.09;;;22.95;59.16
65394;BME280;52002;49.760;6.512;2022-09-03T12:32:32;99532.41;;;22.96;59.03
65394;BME280;52002;49.760;6.512;2022-09-03T12:35:17;99542.69;;;22.94;59.26
65394;BME280;52002;49.760;6.512;2022-09-03T12:37:45;99552.73;;;22.94;59.47
65394;BME280;52002;49.760;6.512;2022-09-03T12:40:23;99567.78;;;22.87;59.36
65394;BME280;52002;49.760;6.512;2022-09-03T12:42:52;99572.55;;;22.82;59.43
65394;BME280;52002;49.760;6.512;2022-09-03T12:45:23;99570.28;;;22.79;59.61
65394;BME280;52002;49.760;6.512;2022-09-03T12:47:50;99573.76;;;22.77;60.35
65394;BME280;52002;49.760;6.512;2022-09-03T12:50:23;99561.81;;;22.78;60.29
65394;BME280;52002;49.760;6.512;2022-09-03T12:53:01;99569.84;;;22.82;60.02
65394;BME280;52002;49.760;6.512;2022-09-03T13:03:49;99568.69;;;22.90;60.71
65394;BME280;52002;49.760;6.512;2022-09-03T13:06:27;99566.03;;;22.93;60.31
65394;BME280;52002;49.760;6.512;2022-09-03T13:09:04;99568.60;;;22.97;61.18
65394;BME280;52002;49.760;6.512;2022-09-03T13:11:33;99568.75;;;23.02;61.83
65394;BME280;52002;49.760;6.512;2022-09-03T13:14:12;99563.91;;;23.04;61.92
65394;BME280;52002;49.760;6.512;2022-09-03T13:19:45;99570.23;;;23.07;62.23
65394;BME280;52002;49.760;6.512;2022-09-03T13:28:02;99561.94;;;23.21;61.94
65394;BME280;52002;49.760;6.512;2022-09-03T13:30:59;99554.65;;;23.24;61.92
65394;BME280;52002;49.760;6.512;2022-09-03T13:33:46;99550.41;;;23.28;61.83
65394;BME280;52002;49.760;6.512;2022-09-03T13:36:20;99546.77;;;23.34;61.18
65394;BME280;52002;49.760;6.512;2022-09-03T13:38:52;99539.50;;;23.37;60.83
65394;BME280;52002;49.760;6.512;2022-09-03T13:47:04;99538.24;;;23.30;59.94
65394;BME280;52002;49.760;6.512;2022-09-03T13:49:53;99538.04;;;23.23;59.87
65394;BME280;52002;49.760;6.512;2022-09-03T13:52:50;99539.68;;;23.14;60.23
65394;BME280;52002;49.760;6.512;2022-09-03T13:55:50;99537.56;;;23.07;60.17
65394;BME280;52002;49.760;6.512;2022-09-03T13:58:30;99542.44;;;23.05;60.28
65394;BME280;52002;49.760;6.512;2022-09-03T14:01:05;99546.28;;;23.07;60.34
65394;BME280;52002;49.760;6.512;2022-09-03T14:03:51;99543.46;;;23.13;60.23
65394;BME280;52002;49.760;6.512;2022-09-03T14:09:20;99557.02;;;23.41;59.59
65394;BME280;52002;49.760;6.512;2022-09-03T14:14:56;99559.28;;;23.77;59.23
65394;BME280;52002;49.760;6.512;2022-09-03T14:20:28;99552.84;;;24.14;58.80
65394;BME280;52002;49.760;6.512;2022-09-03T14:23:30;99551.02;;;24.44;58.52
65394;BME280;52002;49.760;6.512;2022-09-03T14:26:02;99555.93;;;25.09;58.08
65394;BME280;52002;49.760;6.512;2022-09-03T14:28:39;99558.23;;;27.18;56.27
65394;BME280;52002;49.760;6.512;2022-09-03T14:31:13;99567.08;;;30.22;52.53
65394;BME280;52002;49.760;6.512;2022-09-03T14:34:07;99570.56;;;33.02;47.60
65394;BME280;52002;49.760;6.512;2022-09-03T14:40:28;99569.48;;;33.19;42.78
65394;BME280;52002;49.760;6.512;2022-09-03T14:43:27;99562.02;;;32.30;41.76
65394;BME280;52002;49.760;6.512;2022-09-03T14:59:48;99552.28;;;47.02;24.66
65394;BME280;52002;49.760;6.512;2022-09-03T15:11:28;99533.91;;;51.09;19.24
65394;BME280;52002;49.760;6.512;2022-09-03T15:14:16;99526.60;;;51.54;18.11
65394;BME280;52002;49.760;6.512;2022-09-03T15:17:06;99537.09;;;51.85;17.92
65394;BME280;52002;49.760;6.512;2022-09-03T15:25:29;99535.37;;;53.11;16.27
65394;BME280;52002;49.760;6.512;2022-09-03T15:33:58;99525.73;;;49.36;16.86
65394;BME280;52002;49.760;6.512;2022-09-03T15:36:52;99524.07;;;46.74;18.04
65394;BME280;52002;49.760;6.512;2022-09-03T15:39:32;99514.87;;;45.56;19.17
65394;BME280;52002;49.760;6.512;2022-09-03T15:43:09;99516.38;;;44.14;20.10
65394;BME280;52002;49.760;6.512;2022-09-03T15:44:52;99517.62;;;42.56;21.75
65394;BME280;52002;49.760;6.512;2022-09-03T15:50:23;99513.20;;;44.29;21.21
65394;BME280;52002;49.760;6.512;2022-09-03T15:56:14;99513.44;;;46.81;19.83
65394;BME280;52002;49.760;6.512;2022-09-03T15:59:06;99513.67;;;47.39;19.12
65394;BME280;52002;49.760;6.512;2022-09-03T16:01:44;99517.22;;;47.14;18.80
65394;BME280;52002;49.760;6.512;2022-09-03T16:04:54;99516.67;;;47.25;18.38
65394;BME280;52002;49.760;6.512;2022-09-03T16:11:27;99506.84;;;44.76;19.31
65394;BME280;52002;49.760;6.512;2022-09-03T16:16:43;99496.32;;;38.77;24.36
65394;BME280;52002;49.760;6.512;2022-09-03T16:19:20;99490.30;;;36.70;26.67
65394;BME280;52002;49.760;6.512;2022-09-03T16:22:05;99493.20;;;35.07;29.05
65394;BME280;52002;49.760;6.512;2022-09-03T16:27:24;99503.00;;;32.67;32.39
65394;BME280;52002;49.760;6.512;2022-09-03T16:29:57;99498.80;;;31.70;33.60
65394;BME280;52002;49.760;6.512;2022-09-03T16:35:26;99496.04;;;30.27;36.27
65394;BME280;52002;49.760;6.512;2022-09-03T16:38:09;99492.55;;;29.77;37.09
65394;BME280;52002;49.760;6.512;2022-09-03T16:40:51;99501.08;;;29.32;38.45
65394;BME280;52002;49.760;6.512;2022-09-03T16:46:56;99527.95;;;28.32;40.57
65394;BME280;52002;49.760;6.512;2022-09-03T16:49:45;99525.48;;;27.93;41.42
65394;BME280;52002;49.760;6.512;2022-09-03T16:55:18;99538.61;;;27.26;42.96
65394;BME280;52002;49.760;6.512;2022-09-03T16:58:06;99536.28;;;26.88;43.93
65394;BME280;52002;49.760;6.512;2022-09-03T17:01:14;99544.70;;;26.61;44.60
65394;BME280;52002;49.760;6.512;2022-09-03T17:09:33;99547.95;;;26.02;45.66
65394;BME280;52002;49.760;6.512;2022-09-03T17:22:59;99542.91;;;24.99;47.69
65394;BME280;52002;49.760;6.512;2022-09-03T17:25:54;99546.74;;;24.86;48.05
65394;BME280;52002;49.760;6.512;2022-09-03T17:31:16;99542.97;;;24.63;48.98
65394;BME280;52002;49.760;6.512;2022-09-03T17:34:01;99552.44;;;24.58;49.23
65394;BME280;52002;49.760;6.512;2022-09-03T17:43:06;99566.45;;;24.26;49.88
65394;BME280;52002;49.760;6.512;2022-09-03T17:48:55;99574.87;;;24.13;51.84
65394;BME280;52002;49.760;6.512;2022-09-03T17:57:30;99584.17;;;23.69;53.42